createdAt,value
2023-01-01T00:01:21.682Z,95.35
2023-01-01T00:03:52.314Z,95.31
2023-01-01T00:06:19.157Z,96.66
2023-01-01T00:08:45.749Z,96.64
2023-01-01T00:11:12.840Z,96.06
2023-01-01T00:13:41.292Z,96.44
2023-01-01T00:16:13.030Z,96.78
2023-01-01T00:18:40.577Z,96.68
2023-01-01T00:21:11.579Z,97.11
2023-01-01T00:23:38.859Z,96.94
2023-01-01T00:26:12.749Z,96.98
2023-01-01T00:28:39.414Z,98.03
2023-01-01T00:31:10.339Z,97.63
2023-01-01T00:33:37.035Z,98.76
2023-01-01T00:36:15.351Z,97.69
2023-01-01T00:38:43.264Z,98.60
2023-01-01T00:41:09.846Z,99.12
2023-01-01T00:43:36.407Z,100.00
2023-01-01T00:46:04.207Z,99.11
2023-01-01T00:48:30.552Z,99.42
2023-01-01T00:50:56.935Z,98.24
2023-01-01T00:53:23.456Z,98.38
2023-01-01T00:55:50.600Z,98.49
2023-01-01T00:58:18.176Z,99.98
2023-01-01T01:00:46.205Z,98.99
2023-01-01T01:03:27.977Z,97.17
2023-01-01T01:09:41.214Z,97.45
2023-01-01T01:12:17.504Z,96.92
2023-01-01T01:14:45.773Z,96.00
2023-01-01T01:17:12.072Z,95.55
2023-01-01T01:19:38.434Z,95.44
2023-01-01T01:22:04.802Z,94.90
2023-01-01T01:24:32.237Z,94.12
2023-01-01T01:26:58.725Z,94.34
2023-01-01T01:29:25.073Z,94.31
2023-01-01T01:31:51.463Z,95.18
2023-01-01T01:34:21.165Z,95.82
2023-01-01T01:36:53.020Z,95.87
2023-01-01T01:39:19.945Z,95.85
2023-01-01T01:41:46.302Z,95.50
2023-01-01T01:44:43.731Z,96.24
2023-01-01T01:47:38.117Z,95.18
2023-01-01T01:50:15.937Z,95.75
2023-01-01T01:52:55.948Z,96.55
2023-01-01T01:55:22.579Z,97.50
2023-01-01T01:57:49.026Z,97.59
2023-01-01T02:00:15.812Z,98.36
2023-01-01T02:03:06.243Z,98.54
2023-01-01T02:05:34.455Z,99.23
2023-01-01T02:08:03.940Z,99.25
2023-01-01T02:10:30.513Z,99.99
2023-01-01T02:12:56.981Z,100.00
2023-01-01T02:15:28.258Z,100.00
2023-01-01T02:18:01.970Z,100.00
2023-01-01T02:20:52.566Z,100.00
2023-01-01T02:23:37.715Z,100.00
2023-01-01T02:26:38.336Z,100.00
2023-01-01T02:29:31.245Z,100.00
2023-01-01T02:32:10.838Z,100.00
2023-01-01T02:34:49.155Z,100.00
2023-01-01T02:37:18.687Z,100.00
2023-01-01T02:39:50.884Z,100.00
2023-01-01T02:42:17.612Z,100.00
2023-01-01T02:44:48.624Z,100.00
2023-01-01T02:47:18.272Z,100.00
2023-01-01T02:49:53.027Z,100.00
2023-01-01T02:53:03.757Z,100.00
2023-01-01T02:55:55.204Z,100.00
2023-01-01T02:58:54.852Z,100.00
2023-01-01T03:01:58.610Z,100.00
2023-01-01T03:04:31.483Z,100.00
2023-01-01T03:07:18.258Z,100.00
2023-01-01T03:10:03.053Z,100.00
2023-01-01T03:12:46.549Z,100.00
2023-01-01T03:15:24.833Z,100.00
2023-01-01T03:18:15.579Z,100.00
2023-01-01T03:20:46.797Z,100.00
2023-01-01T03:23:19.875Z,100.00
2023-01-01T03:25:49.845Z,100.00
2023-01-01T03:28:22.163Z,100.00
2023-01-01T03:30:51.509Z,100.00
2023-01-01T03:33:40.971Z,100.00
2023-01-01T03:36:11.749Z,100.00
2023-01-01T03:39:07.527Z,100.00
2023-01-01T03:41:46.751Z,100.00
2023-01-01T03:44:16.782Z,100.00
2023-01-01T03:46:43.298Z,100.00
2023-01-01T03:49:12.193Z,100.00
2023-01-01T03:52:15.608Z,100.00
2023-01-01T03:55:38.253Z,100.00
2023-01-01T03:58:24.773Z,100.00
2023-01-01T04:01:00.988Z,100.00
2023-01-01T04:03:29.568Z,100.00
2023-01-01T04:05:55.890Z,100.00
2023-01-01T04:08:22.564Z,100.00
2023-01-01T04:10:53.656Z,100.00
2023-01-01T04:13:20.089Z,100.00
2023-01-01T04:15:46.518Z,100.00
2023-01-01T04:18:12.930Z,100.00
2023-01-01T04:20:39.332Z,100.00
2023-01-01T04:23:05.790Z,100.00
2023-01-01T04:25:32.309Z,100.00
2023-01-01T04:27:58.948Z,100.00
2023-01-01T04:30:26.829Z,100.00
2023-01-01T04:32:54.885Z,100.00
2023-01-01T04:35:21.633Z,100.00
2023-01-01T04:37:48.000Z,100.00
2023-01-01T04:40:14.906Z,100.00
2023-01-01T04:42:41.625Z,100.00
2023-01-01T04:45:08.631Z,100.00
2023-01-01T04:47:34.964Z,100.00
2023-01-01T04:50:01.362Z,100.00
2023-01-01T04:52:27.697Z,100.00
2023-01-01T04:54:54.028Z,100.00
2023-01-01T04:57:20.359Z,100.00
2023-01-01T04:59:46.763Z,100.00
2023-01-01T05:02:13.222Z,100.00
2023-01-01T05:04:39.675Z,100.00
2023-01-01T05:07:05.970Z,100.00
2023-01-01T05:09:32.283Z,100.00
2023-01-01T05:11:58.620Z,100.00
2023-01-01T05:14:24.941Z,100.00
2023-01-01T05:16:52.722Z,100.00
2023-01-01T05:19:19.108Z,100.00
2023-01-01T05:21:46.369Z,100.00
2023-01-01T05:24:13.272Z,100.00
2023-01-01T05:26:43.057Z,100.00
2023-01-01T05:29:16.001Z,100.00
2023-01-01T05:31:44.615Z,100.00
2023-01-01T05:34:11.083Z,100.00
2023-01-01T05:36:38.999Z,100.00
2023-01-01T05:39:06.949Z,100.00
2023-01-01T05:41:36.187Z,100.00
2023-01-01T05:44:07.264Z,100.00
2023-01-01T05:46:34.086Z,100.00
2023-01-01T05:49:00.698Z,100.00
2023-01-01T05:51:29.150Z,100.00
2023-01-01T05:53:56.813Z,100.00
2023-01-01T05:56:23.511Z,100.00
2023-01-01T05:58:49.941Z,100.00
2023-01-01T06:01:22.659Z,100.00
2023-01-01T06:03:50.925Z,100.00
2023-01-01T06:06:19.958Z,100.00
2023-01-01T06:08:54.541Z,100.00
2023-01-01T06:11:20.938Z,100.00
2023-01-01T06:13:47.448Z,100.00
2023-01-01T06:16:14.384Z,100.00
2023-01-01T06:18:40.898Z,100.00
2023-01-01T06:21:13.736Z,100.00
2023-01-01T06:23:41.039Z,100.00
2023-01-01T06:26:10.200Z,100.00
2023-01-01T06:28:37.208Z,100.00
2023-01-01T06:31:05.809Z,100.00
2023-01-01T06:33:33.230Z,100.00
2023-01-01T06:36:01.802Z,100.00
2023-01-01T06:38:31.212Z,100.00
2023-01-01T06:41:10.518Z,100.00
2023-01-01T06:43:37.663Z,100.00
2023-01-01T06:46:14.025Z,100.00
2023-01-01T06:48:40.405Z,100.00
2023-01-01T06:51:09.878Z,100.00
2023-01-01T06:53:36.399Z,100.00
2023-01-01T06:56:03.423Z,100.00
2023-01-01T06:58:30.313Z,100.00
2023-01-01T07:01:09.320Z,100.00
2023-01-01T07:03:36.652Z,100.00
2023-01-01T07:06:03.666Z,100.00
2023-01-01T07:08:30.072Z,100.00
2023-01-01T07:10:57.507Z,100.00
2023-01-01T07:13:25.543Z,100.00
2023-01-01T07:15:53.041Z,100.00
2023-01-01T07:18:20.367Z,100.00
2023-01-01T07:20:58.514Z,100.00
2023-01-01T07:23:26.574Z,100.00
2023-01-01T07:25:54.121Z,100.00
2023-01-01T07:28:21.531Z,100.00
2023-01-01T07:30:48.730Z,100.00
2023-01-01T07:33:17.477Z,100.00
2023-01-01T07:35:47.524Z,100.00
2023-01-01T07:38:14.992Z,100.00
2023-01-01T07:40:41.883Z,100.00
2023-01-01T07:43:08.666Z,100.00
2023-01-01T07:45:35.707Z,100.00
2023-01-01T07:48:02.586Z,100.00
2023-01-01T07:50:32.049Z,100.00
2023-01-01T07:52:58.950Z,100.00
2023-01-01T07:55:25.360Z,100.00
2023-01-01T07:57:51.706Z,100.00
2023-01-01T08:00:20.077Z,100.00
2023-01-01T08:02:46.631Z,100.00
2023-01-01T08:08:04.195Z,100.00
2023-01-01T08:10:31.021Z,100.00
2023-01-01T08:13:01.686Z,100.00
2023-01-01T08:15:28.073Z,100.00
2023-01-01T08:18:01.783Z,100.00
2023-01-01T08:20:29.936Z,100.00
2023-01-01T08:23:01.463Z,100.00
2023-01-01T08:25:31.085Z,100.00
2023-01-01T08:27:57.434Z,100.00
2023-01-01T08:30:23.965Z,100.00
2023-01-01T08:32:50.297Z,100.00
2023-01-01T08:35:16.764Z,100.00
2023-01-01T08:37:43.175Z,100.00
2023-01-01T08:40:12.198Z,99.86
2023-01-01T08:42:38.796Z,100.00
2023-01-01T08:45:06.674Z,100.00
2023-01-01T08:47:33.272Z,98.72
2023-01-01T08:49:59.667Z,98.76
2023-01-01T08:52:25.984Z,99.17
2023-01-01T08:54:52.350Z,100.00
2023-01-01T08:57:18.653Z,99.74
2023-01-01T08:59:44.988Z,99.22
2023-01-01T09:02:12.207Z,98.46
2023-01-01T09:04:38.662Z,97.01
2023-01-01T09:07:05.084Z,97.18
2023-01-01T09:09:32.018Z,98.29
2023-01-01T09:12:03.863Z,98.03
2023-01-01T09:14:30.766Z,97.25
2023-01-01T09:16:57.159Z,96.71
2023-01-01T09:19:23.488Z,98.07
2023-01-01T09:21:51.058Z,96.93
2023-01-01T09:24:17.385Z,97.64
2023-01-01T09:26:45.522Z,96.34
2023-01-01T09:29:11.819Z,94.92
2023-01-01T09:31:38.179Z,97.44
2023-01-01T09:34:04.532Z,97.54
2023-01-01T09:36:32.580Z,97.23
2023-01-01T09:38:59.769Z,96.20
2023-01-01T09:41:43.422Z,95.90
2023-01-01T09:44:25.143Z,95.69
2023-01-01T09:46:53.808Z,94.23
2023-01-01T09:49:37.978Z,93.07
2023-01-01T09:52:05.597Z,95.05
2023-01-01T09:54:48.219Z,94.81
2023-01-01T09:57:19.996Z,92.64
2023-01-01T09:59:46.868Z,93.70
2023-01-01T10:02:36.157Z,93.91
2023-01-01T10:05:21.223Z,91.69
2023-01-01T10:08:00.692Z,94.65
2023-01-01T10:10:39.133Z,94.83
2023-01-01T10:13:22.561Z,93.72
2023-01-01T10:15:59.545Z,94.28
2023-01-01T10:18:33.439Z,93.53
2023-01-01T10:21:03.404Z,93.70
2023-01-01T10:23:35.316Z,93.18
2023-01-01T10:26:11.796Z,92.68
2023-01-01T10:28:51.722Z,92.35
2023-01-01T10:31:30.576Z,91.32
2023-01-01T10:33:57.362Z,92.69
2023-01-01T10:36:26.192Z,92.75
2023-01-01T10:38:52.656Z,92.38
2023-01-01T10:41:20.051Z,92.65
2023-01-01T10:43:48.191Z,93.91
2023-01-01T10:46:26.066Z,93.39
2023-01-01T10:49:13.529Z,92.86
2023-01-01T10:51:48.272Z,92.29
2023-01-01T10:54:37.891Z,92.90
2023-01-01T10:57:40.476Z,90.49
2023-01-01T11:00:23.737Z,91.26
2023-01-01T11:03:19.328Z,91.31
2023-01-01T11:06:10.933Z,90.81
2023-01-01T11:08:41.090Z,91.52
2023-01-01T11:11:07.440Z,89.79
2023-01-01T11:13:34.232Z,88.16
2023-01-01T11:16:00.956Z,88.30
2023-01-01T11:18:36.054Z,89.46
2023-01-01T11:21:05.424Z,87.29
2023-01-01T11:23:35.667Z,88.66
2023-01-01T11:26:02.029Z,87.02
2023-01-01T11:28:31.347Z,85.94
2023-01-01T11:31:21.170Z,85.35
2023-01-01T11:33:56.497Z,84.79
2023-01-01T11:36:30.035Z,85.27
2023-01-01T11:39:24.992Z,85.56
2023-01-01T11:41:54.066Z,85.58
2023-01-01T11:44:38.046Z,84.21
2023-01-01T11:47:07.122Z,84.13
2023-01-01T11:49:34.397Z,85.53
2023-01-01T11:52:01.086Z,85.88
2023-01-01T11:54:35.975Z,84.60
2023-01-01T11:57:14.792Z,84.54
2023-01-01T11:59:49.837Z,84.43
2023-01-01T12:02:29.865Z,84.03
2023-01-01T12:05:09.371Z,84.13
2023-01-01T12:07:39.875Z,83.92
2023-01-01T12:10:24.277Z,84.29
2023-01-01T12:12:57.351Z,84.42
2023-01-01T12:15:31.396Z,84.33
2023-01-01T12:18:21.089Z,86.41
2023-01-01T12:21:24.138Z,86.94
2023-01-01T12:23:50.706Z,86.38
2023-01-01T12:26:54.994Z,84.77
2023-01-01T12:29:36.936Z,84.82
2023-01-01T12:32:20.502Z,86.62
2023-01-01T12:35:18.973Z,84.15
2023-01-01T12:38:01.665Z,84.09
2023-01-01T12:40:40.264Z,85.09
2023-01-01T12:43:21.979Z,86.40
2023-01-01T12:46:15.481Z,87.53
2023-01-01T12:49:12.056Z,86.33
2023-01-01T12:52:06.067Z,85.41
2023-01-01T12:54:35.054Z,85.27
2023-01-01T12:57:25.778Z,84.74
2023-01-01T12:59:53.469Z,86.02
2023-01-01T13:02:24.006Z,86.04
2023-01-01T13:04:56.288Z,85.98
2023-01-01T13:07:36.342Z,84.96
2023-01-01T13:10:27.936Z,85.14
2023-01-01T13:12:56.039Z,85.61
2023-01-01T13:15:37.767Z,85.29
2023-01-01T13:18:14.707Z,85.63
2023-01-01T13:20:44.646Z,89.18
2023-01-01T13:23:41.971Z,86.73
2023-01-01T13:26:28.620Z,86.42
2023-01-01T13:28:57.991Z,86.85
2023-01-01T13:31:40.153Z,87.87
2023-01-01T13:34:35.362Z,89.12
2023-01-01T13:37:10.837Z,90.01
2023-01-01T13:39:56.595Z,90.59
2023-01-01T13:42:59.055Z,89.96
2023-01-01T13:48:34.392Z,90.18
2023-01-01T13:54:57.508Z,91.66
2023-01-01T13:58:01.540Z,91.97
2023-01-01T14:00:53.674Z,92.84
2023-01-01T14:03:21.295Z,92.16
2023-01-01T14:06:02.784Z,91.78
2023-01-01T14:08:32.023Z,91.54
2023-01-01T14:11:00.762Z,91.02
2023-01-01T14:13:30.165Z,92.29
2023-01-01T14:16:08.768Z,92.49
2023-01-01T14:18:41.707Z,92.75
2023-01-01T14:21:11.380Z,92.88
2023-01-01T14:23:41.918Z,93.13
2023-01-01T14:26:14.750Z,92.70
2023-01-01T14:28:42.097Z,94.20
2023-01-01T14:31:18.655Z,96.28
2023-01-01T14:33:46.238Z,97.25
2023-01-01T14:36:25.219Z,98.99
2023-01-01T14:38:54.127Z,98.16
2023-01-01T14:41:32.835Z,100.00
2023-01-01T14:44:29.589Z,99.61
2023-01-01T14:46:56.136Z,100.00
2023-01-01T14:49:37.986Z,100.00
2023-01-01T14:52:24.669Z,100.00
2023-01-01T14:54:52.354Z,100.00
2023-01-01T14:57:28.738Z,96.75
2023-01-01T14:59:56.422Z,95.38
2023-01-01T15:02:28.995Z,96.31
2023-01-01T15:04:57.167Z,96.32
2023-01-01T15:07:29.176Z,96.27
2023-01-01T15:10:00.342Z,96.98
2023-01-01T15:12:27.613Z,95.95
2023-01-01T15:14:56.267Z,95.42
2023-01-01T15:17:25.383Z,94.56
2023-01-01T15:20:07.358Z,95.16
2023-01-01T15:22:39.009Z,95.39
2023-01-01T15:25:06.123Z,97.07
2023-01-01T15:27:36.844Z,96.74
2023-01-01T15:30:13.596Z,100.00
2023-01-01T15:32:40.948Z,99.58
2023-01-01T15:35:23.755Z,100.00
2023-01-01T15:38:10.457Z,99.96
2023-01-01T15:40:37.025Z,99.57
2023-01-01T15:43:03.282Z,99.38
2023-01-01T15:45:31.714Z,98.14
2023-01-01T15:48:19.507Z,99.53
2023-01-01T15:50:48.565Z,100.00
2023-01-01T15:53:19.807Z,100.00
2023-01-01T15:55:54.555Z,100.00
2023-01-01T15:58:29.901Z,100.00
2023-01-01T16:00:58.697Z,100.00
2023-01-01T16:03:27.420Z,100.00
2023-01-01T16:05:56.287Z,100.00
2023-01-01T16:08:23.714Z,100.00
2023-01-01T16:10:51.070Z,100.00
2023-01-01T16:13:18.584Z,100.00
2023-01-01T16:15:56.793Z,100.00
2023-01-01T16:18:28.938Z,100.00
2023-01-01T16:20:55.950Z,100.00
2023-01-01T16:23:22.383Z,100.00
2023-01-01T16:25:48.689Z,100.00
2023-01-01T16:28:15.227Z,100.00
2023-01-01T16:30:43.097Z,100.00
2023-01-01T16:33:15.223Z,100.00
2023-01-01T16:35:41.620Z,100.00
2023-01-01T16:38:08.041Z,100.00
2023-01-01T16:40:37.992Z,100.00
2023-01-01T16:43:09.237Z,100.00
2023-01-01T16:45:35.852Z,100.00
2023-01-01T16:48:02.158Z,100.00
2023-01-01T16:50:28.470Z,100.00
2023-01-01T16:52:54.909Z,100.00
2023-01-01T16:55:21.206Z,100.00
2023-01-01T16:57:47.764Z,100.00
2023-01-01T17:00:14.772Z,100.00
2023-01-01T17:02:41.597Z,100.00
2023-01-01T17:05:08.773Z,100.00
2023-01-01T17:07:35.114Z,100.00
2023-01-01T17:10:01.503Z,100.00
2023-01-01T17:12:27.795Z,100.00
2023-01-01T17:14:54.127Z,100.00
2023-01-01T17:17:20.450Z,100.00
2023-01-01T17:19:47.120Z,100.00
2023-01-01T17:22:13.433Z,100.00
2023-01-01T17:24:39.721Z,100.00
2023-01-01T17:27:06.088Z,100.00
2023-01-01T17:29:32.833Z,100.00
2023-01-01T17:31:59.181Z,100.00
2023-01-01T17:34:25.685Z,100.00
2023-01-01T17:36:52.026Z,100.00
2023-01-01T17:39:18.373Z,100.00
2023-01-01T17:41:45.228Z,100.00
2023-01-01T17:44:11.964Z,100.00
2023-01-01T17:46:39.175Z,100.00
2023-01-01T17:49:06.232Z,100.00
2023-01-01T17:51:32.589Z,100.00
2023-01-01T17:54:00.306Z,100.00
2023-01-01T17:56:26.635Z,100.00
2023-01-01T17:58:53.579Z,100.00
2023-01-01T18:01:23.075Z,100.00
2023-01-01T18:03:55.915Z,100.00
2023-01-01T18:06:22.924Z,100.00
2023-01-01T18:08:54.908Z,100.00
2023-01-01T18:11:21.323Z,100.00
2023-01-01T18:13:47.684Z,100.00
2023-01-01T18:16:14.092Z,100.00
2023-01-01T18:18:40.860Z,100.00
2023-01-01T18:21:10.015Z,100.00
2023-01-01T18:23:39.713Z,100.00
2023-01-01T18:26:08.777Z,100.00
2023-01-01T18:28:35.681Z,100.00
2023-01-01T18:31:06.487Z,100.00
2023-01-01T18:33:34.924Z,100.00
2023-01-01T18:36:11.762Z,100.00
2023-01-01T18:38:39.242Z,100.00
2023-01-01T18:41:17.947Z,100.00
2023-01-01T18:43:44.294Z,100.00
2023-01-01T18:46:10.655Z,100.00
2023-01-01T18:48:37.281Z,100.00
2023-01-01T18:51:14.681Z,100.00
2023-01-01T18:53:41.082Z,100.00
2023-01-01T18:56:14.367Z,100.00
2023-01-01T18:58:42.849Z,100.00
2023-01-01T19:01:16.123Z,100.00
2023-01-01T19:03:42.997Z,100.00
2023-01-01T19:06:30.791Z,100.00
2023-01-01T19:09:18.340Z,100.00
2023-01-01T19:11:44.696Z,100.00
2023-01-01T19:14:19.080Z,100.00
2023-01-01T19:16:47.171Z,100.00
2023-01-01T19:19:23.115Z,100.00
2023-01-01T19:21:59.097Z,100.00
2023-01-01T19:24:27.977Z,100.00
2023-01-01T19:27:17.005Z,100.00
2023-01-01T19:29:46.647Z,100.00
2023-01-01T19:32:13.006Z,100.00
2023-01-01T19:34:39.788Z,100.00
2023-01-01T19:37:07.491Z,100.00
2023-01-01T19:39:35.148Z,100.00
2023-01-01T19:42:06.812Z,100.00
2023-01-01T19:44:34.409Z,100.00
2023-01-01T19:47:01.038Z,100.00
2023-01-01T19:49:28.115Z,100.00
2023-01-01T19:51:54.455Z,100.00
2023-01-01T19:54:20.850Z,100.00
2023-01-01T19:56:48.204Z,100.00
2023-01-01T19:59:14.498Z,100.00
2023-01-01T20:01:40.998Z,100.00
2023-01-01T20:04:07.633Z,100.00
2023-01-01T20:06:36.148Z,100.00
2023-01-01T20:09:02.789Z,100.00
2023-01-01T20:11:31.646Z,100.00
2023-01-01T20:13:58.306Z,100.00
2023-01-01T20:16:24.729Z,100.00
2023-01-01T20:18:51.194Z,100.00
2023-01-01T20:21:36.346Z,100.00
2023-01-01T20:24:02.868Z,100.00
2023-01-01T20:26:29.263Z,100.00
2023-01-01T20:29:14.269Z,100.00
2023-01-01T20:31:40.674Z,100.00
2023-01-01T20:34:07.087Z,100.00
2023-01-01T20:36:52.419Z,100.00
2023-01-01T20:39:18.780Z,100.00
2023-01-01T20:41:45.113Z,100.00
2023-01-01T20:44:11.600Z,100.00
2023-01-01T20:46:38.372Z,100.00
2023-01-01T20:49:05.097Z,100.00
2023-01-01T20:51:31.407Z,100.00
2023-01-01T20:53:57.847Z,100.00
2023-01-01T20:56:24.282Z,100.00
2023-01-01T20:58:56.077Z,100.00
2023-01-01T21:01:25.865Z,100.00
2023-01-01T21:03:52.202Z,100.00
2023-01-01T21:06:24.220Z,100.00
2023-01-01T21:08:51.593Z,100.00
2023-01-01T21:11:18.103Z,100.00
2023-01-01T21:13:44.939Z,100.00
2023-01-01T21:16:32.494Z,100.00
2023-01-01T21:19:01.412Z,100.00
2023-01-01T21:21:43.928Z,100.00
2023-01-01T21:24:36.160Z,100.00
2023-01-01T21:27:13.144Z,100.00
2023-01-01T21:29:58.706Z,100.00
2023-01-01T21:32:27.556Z,100.00
2023-01-01T21:34:55.258Z,100.00
2023-01-01T21:37:50.872Z,100.00
2023-01-01T21:40:31.473Z,100.00
2023-01-01T21:43:10.162Z,100.00
2023-01-01T21:45:43.670Z,100.00
2023-01-01T21:48:17.514Z,100.00
2023-01-01T21:50:47.181Z,100.00
2023-01-01T21:53:22.964Z,100.00
2023-01-01T21:55:52.234Z,100.00
2023-01-01T21:58:38.184Z,100.00
2023-01-01T22:01:16.876Z,100.00
2023-01-01T22:03:43.346Z,100.00
2023-01-01T22:06:15.022Z,100.00
2023-01-01T22:08:46.086Z,100.00
2023-01-01T22:11:26.228Z,100.00
2023-01-01T22:13:53.256Z,100.00
2023-01-01T22:16:28.079Z,100.00
2023-01-01T22:18:54.610Z,100.00
2023-01-01T22:21:21.661Z,100.00
2023-01-01T22:23:48.528Z,100.00
2023-01-01T22:26:23.232Z,100.00
2023-01-01T22:28:56.440Z,100.00
2023-01-01T22:31:25.580Z,100.00
2023-01-01T22:33:55.143Z,100.00
2023-01-01T22:36:26.001Z,100.00
2023-01-01T22:39:00.531Z,100.00
2023-01-01T22:41:26.939Z,100.00
2023-01-01T22:44:02.421Z,100.00
2023-01-01T22:46:34.895Z,100.00
2023-01-01T22:49:12.863Z,100.00
2023-01-01T22:51:42.540Z,100.00
2023-01-01T22:54:08.867Z,100.00
2023-01-01T22:56:35.211Z,100.00
2023-01-01T22:59:01.524Z,100.00
2023-01-01T23:01:28.356Z,100.00
2023-01-01T23:03:54.848Z,100.00
2023-01-01T23:06:21.968Z,100.00
2023-01-01T23:08:50.162Z,100.00
2023-01-01T23:11:16.758Z,100.00
2023-01-01T23:14:07.378Z,100.00
2023-01-01T23:16:34.198Z,100.00
2023-01-01T23:19:00.716Z,100.00
2023-01-01T23:21:28.069Z,100.00
2023-01-01T23:23:57.481Z,100.00
2023-01-01T23:26:25.222Z,100.00
2023-01-01T23:28:53.083Z,100.00
2023-01-01T23:31:25.238Z,100.00
2023-01-01T23:33:52.875Z,100.00
2023-01-01T23:36:19.276Z,100.00
2023-01-01T23:38:45.905Z,100.00
2023-01-01T23:41:12.269Z,100.00
2023-01-01T23:43:43.272Z,100.00
2023-01-01T23:46:12.248Z,100.00
2023-01-01T23:48:39.253Z,100.00
2023-01-01T23:51:05.803Z,100.00
2023-01-01T23:53:32.124Z,100.00
2023-01-01T23:55:58.564Z,100.00
2023-01-01T23:58:24.863Z,100.00
